sensor_id;sensor_type;location;lat;lon;timestamp;P1;durP1;ratioP1;P2;durP2;ratioP2
2023;SDS011;1016;48.770;9.154;2023-03-01T00:01:06;33.10;;;13.50;;
2023;SDS011;1016;48.770;9.154;2023-03-01T00:03:33;32.73;;;11.87;;
2023;SDS011;1016;48.770;9.154;2023-03-01T00:06:00;31.90;;;12.13;;
2023;SDS011;1016;48.770;9.154;2023-03-01T00:08:26;29.87;;;12.03;;
2023;SDS011;1016;48.770;9.154;2023-03-01T00:13:38;30.70;;;12.10;;
2023;SDS011;1016;48.770;9.154;2023-03-01T00:16:06;29.37;;;11.37;;
2023;SDS011;1016;48.770;9.154;2023-03-01T00:18:34;31.43;;;11.83;;
2023;SDS011;1016;48.770;9.154;2023-03-01T00:21:00;28.80;;;11.17;;
2023;SDS011;1016;48.770;9.154;2023-03-01T00:23:26;29.80;;;12.00;;
2023;SDS011;1016;48.770;9.154;2023-03-01T00:25:51;31.60;;;11.90;;
2023;SDS011;1016;48.770;9.154;2023-03-01T00:28:17;30.27;;;12.20;;
2023;SDS011;1016;48.770;9.154;2023-03-01T00:30:43;28.43;;;11.83;;
2023;SDS011;1016;48.770;9.154;2023-03-01T00:33:09;31.73;;;12.83;;
2023;SDS011;1016;48.770;9.154;2023-03-01T00:35:34;29.63;;;12.10;;
2023;SDS011;1016;48.770;9.154;2023-03-01T00:38:00;30.47;;;13.00;;
2023;SDS011;1016;48.770;9.154;2023-03-01T00:40:27;31.13;;;13.00;;
2023;SDS011;1016;48.770;9.154;2023-03-01T00:42:53;30.83;;;12.30;;
2023;SDS011;1016;48.770;9.154;2023-03-01T00:45:20;31.23;;;12.93;;
2023;SDS011;1016;48.770;9.154;2023-03-01T00:47:48;31.03;;;12.17;;
2023;SDS011;1016;48.770;9.154;2023-03-01T00:50:15;29.17;;;11.47;;
2023;SDS011;1016;48.770;9.154;2023-03-01T00:52:43;30.77;;;12.20;;
2023;SDS011;1016;48.770;9.154;2023-03-01T00:55:08;31.17;;;12.67;;
2023;SDS011;1016;48.770;9.154;2023-03-01T00:57:35;28.10;;;11.03;;
2023;SDS011;1016;48.770;9.154;2023-03-01T01:00:01;31.83;;;12.17;;
2023;SDS011;1016;48.770;9.154;2023-03-01T01:02:29;29.50;;;12.00;;
2023;SDS011;1016;48.770;9.154;2023-03-01T01:05:00;32.33;;;12.50;;
2023;SDS011;1016;48.770;9.154;2023-03-01T01:07:27;30.40;;;11.73;;
2023;SDS011;1016;48.770;9.154;2023-03-01T01:09:52;29.13;;;11.37;;
2023;SDS011;1016;48.770;9.154;2023-03-01T01:12:18;27.97;;;11.73;;
2023;SDS011;1016;48.770;9.154;2023-03-01T01:14:45;27.70;;;10.80;;
2023;SDS011;1016;48.770;9.154;2023-03-01T01:17:12;29.93;;;12.47;;
2023;SDS011;1016;48.770;9.154;2023-03-01T01:19:37;30.63;;;11.90;;
2023;SDS011;1016;48.770;9.154;2023-03-01T01:22:03;29.30;;;12.07;;
2023;SDS011;1016;48.770;9.154;2023-03-01T01:24:29;33.40;;;12.73;;
2023;SDS011;1016;48.770;9.154;2023-03-01T01:26:54;30.70;;;12.40;;
2023;SDS011;1016;48.770;9.154;2023-03-01T01:29:21;29.50;;;11.73;;
2023;SDS011;1016;48.770;9.154;2023-03-01T01:31:46;31.40;;;12.50;;
2023;SDS011;1016;48.770;9.154;2023-03-01T01:34:17;29.90;;;12.87;;
2023;SDS011;1016;48.770;9.154;2023-03-01T01:36:49;31.10;;;12.40;;
2023;SDS011;1016;48.770;9.154;2023-03-01T01:39:19;30.50;;;12.27;;
2023;SDS011;1016;48.770;9.154;2023-03-01T01:41:47;29.30;;;12.07;;
2023;SDS011;1016;48.770;9.154;2023-03-01T01:44:20;30.37;;;12.33;;
2023;SDS011;1016;48.770;9.154;2023-03-01T01:46:52;29.67;;;11.70;;
2023;SDS011;1016;48.770;9.154;2023-03-01T01:52:22;32.37;;;11.87;;
2023;SDS011;1016;48.770;9.154;2023-03-01T01:55:05;29.00;;;11.50;;
2023;SDS011;1016;48.770;9.154;2023-03-01T01:57:48;30.37;;;12.40;;
2023;SDS011;1016;48.770;9.154;2023-03-01T02:00:22;34.70;;;13.33;;
2023;SDS011;1016;48.770;9.154;2023-03-01T02:02:55;31.70;;;12.60;;
2023;SDS011;1016;48.770;9.154;2023-03-01T02:08:30;29.10;;;12.20;;
2023;SDS011;1016;48.770;9.154;2023-03-01T02:11:00;31.50;;;12.47;;
2023;SDS011;1016;48.770;9.154;2023-03-01T02:13:32;30.90;;;12.00;;
2023;SDS011;1016;48.770;9.154;2023-03-01T02:16:08;30.80;;;12.33;;
2023;SDS011;1016;48.770;9.154;2023-03-01T02:18:35;31.40;;;11.90;;
2023;SDS011;1016;48.770;9.154;2023-03-01T02:23:46;30.20;;;12.17;;
2023;SDS011;1016;48.770;9.154;2023-03-01T02:26:18;31.47;;;13.10;;
2023;SDS011;1016;48.770;9.154;2023-03-01T02:28:55;31.50;;;12.50;;
2023;SDS011;1016;48.770;9.154;2023-03-01T02:31:30;30.90;;;12.80;;
2023;SDS011;1016;48.770;9.154;2023-03-01T02:34:12;33.07;;;12.90;;
2023;SDS011;1016;48.770;9.154;2023-03-01T02:36:53;30.53;;;12.70;;
2023;SDS011;1016;48.770;9.154;2023-03-01T02:39:36;31.93;;;12.30;;
2023;SDS011;1016;48.770;9.154;2023-03-01T02:42:14;30.87;;;12.43;;
2023;SDS011;1016;48.770;9.154;2023-03-01T02:44:49;31.80;;;12.50;;
2023;SDS011;1016;48.770;9.154;2023-03-01T02:47:16;33.60;;;13.43;;
2023;SDS011;1016;48.770;9.154;2023-03-01T02:49:44;30.73;;;12.93;;
2023;SDS011;1016;48.770;9.154;2023-03-01T02:52:44;32.73;;;13.80;;
2023;SDS011;1016;48.770;9.154;2023-03-01T02:55:11;32.40;;;12.67;;
2023;SDS011;1016;48.770;9.154;2023-03-01T02:57:43;29.97;;;12.43;;
2023;SDS011;1016;48.770;9.154;2023-03-01T03:00:26;30.77;;;13.57;;
2023;SDS011;1016;48.770;9.154;2023-03-01T03:02:55;31.47;;;13.17;;
2023;SDS011;1016;48.770;9.154;2023-03-01T03:05:28;31.63;;;12.53;;
2023;SDS011;1016;48.770;9.154;2023-03-01T03:07:55;32.00;;;13.03;;
2023;SDS011;1016;48.770;9.154;2023-03-01T03:10:26;31.43;;;13.17;;
2023;SDS011;1016;48.770;9.154;2023-03-01T03:13:14;31.53;;;13.20;;
2023;SDS011;1016;48.770;9.154;2023-03-01T03:15:43;33.00;;;13.50;;
2023;SDS011;1016;48.770;9.154;2023-03-01T03:18:12;32.77;;;14.20;;
2023;SDS011;1016;48.770;9.154;2023-03-01T03:20:43;32.87;;;13.17;;
2023;SDS011;1016;48.770;9.154;2023-03-01T03:23:12;33.77;;;13.63;;
2023;SDS011;1016;48.770;9.154;2023-03-01T03:25:39;33.07;;;13.60;;
2023;SDS011;1016;48.770;9.154;2023-03-01T03:28:05;32.60;;;13.10;;
2023;SDS011;1016;48.770;9.154;2023-03-01T03:30:37;35.67;;;14.83;;
2023;SDS011;1016;48.770;9.154;2023-03-01T03:33:07;32.10;;;14.37;;
2023;SDS011;1016;48.770;9.154;2023-03-01T03:35:34;30.97;;;12.97;;
2023;SDS011;1016;48.770;9.154;2023-03-01T03:38:05;32.13;;;13.97;;
2023;SDS011;1016;48.770;9.154;2023-03-01T03:40:40;33.00;;;14.03;;
2023;SDS011;1016;48.770;9.154;2023-03-01T03:43:10;33.90;;;14.20;;
2023;SDS011;1016;48.770;9.154;2023-03-01T03:45:37;30.60;;;13.23;;
2023;SDS011;1016;48.770;9.154;2023-03-01T03:48:04;31.83;;;13.80;;
2023;SDS011;1016;48.770;9.154;2023-03-01T03:50:34;31.80;;;14.10;;
2023;SDS011;1016;48.770;9.154;2023-03-01T03:53:03;32.30;;;13.97;;
2023;SDS011;1016;48.770;9.154;2023-03-01T03:55:32;31.47;;;12.90;;
2023;SDS011;1016;48.770;9.154;2023-03-01T03:57:59;31.60;;;13.17;;
2023;SDS011;1016;48.770;9.154;2023-03-01T04:00:31;32.30;;;13.87;;
2023;SDS011;1016;48.770;9.154;2023-03-01T04:02:58;31.80;;;13.40;;
2023;SDS011;1016;48.770;9.154;2023-03-01T04:05:25;29.97;;;12.77;;
2023;SDS011;1016;48.770;9.154;2023-03-01T04:07:54;33.87;;;14.60;;
2023;SDS011;1016;48.770;9.154;2023-03-01T04:10:44;33.20;;;14.47;;
2023;SDS011;1016;48.770;9.154;2023-03-01T04:13:13;34.33;;;14.53;;
2023;SDS011;1016;48.770;9.154;2023-03-01T04:15:44;31.80;;;13.60;;
2023;SDS011;1016;48.770;9.154;2023-03-01T04:18:16;36.13;;;14.40;;
2023;SDS011;1016;48.770;9.154;2023-03-01T04:20:44;30.70;;;13.10;;
2023;SDS011;1016;48.770;9.154;2023-03-01T04:23:18;33.00;;;14.10;;
2023;SDS011;1016;48.770;9.154;2023-03-01T04:25:52;31.97;;;13.90;;
2023;SDS011;1016;48.770;9.154;2023-03-01T04:28:23;32.70;;;14.20;;
2023;SDS011;1016;48.770;9.154;2023-03-01T04:30:49;35.07;;;14.53;;
2023;SDS011;1016;48.770;9.154;2023-03-01T04:33:18;38.03;;;13.93;;
2023;SDS011;1016;48.770;9.154;2023-03-01T04:35:44;33.50;;;15.17;;
2023;SDS011;1016;48.770;9.154;2023-03-01T04:38:11;38.70;;;15.10;;
2023;SDS011;1016;48.770;9.154;2023-03-01T04:40:37;33.80;;;13.83;;
2023;SDS011;1016;48.770;9.154;2023-03-01T04:43:04;32.80;;;15.00;;
2023;SDS011;1016;48.770;9.154;2023-03-01T04:45:32;35.93;;;14.60;;
2023;SDS011;1016;48.770;9.154;2023-03-01T04:47:59;32.90;;;14.70;;
2023;SDS011;1016;48.770;9.154;2023-03-01T04:50:24;34.87;;;15.90;;
2023;SDS011;1016;48.770;9.154;2023-03-01T04:52:56;37.63;;;16.37;;
2023;SDS011;1016;48.770;9.154;2023-03-01T04:55:26;34.17;;;15.73;;
2023;SDS011;1016;48.770;9.154;2023-03-01T04:57:53;36.10;;;16.10;;
2023;SDS011;1016;48.770;9.154;2023-03-01T05:00:22;37.47;;;15.83;;
2023;SDS011;1016;48.770;9.154;2023-03-01T05:02:59;31.90;;;13.93;;
2023;SDS011;1016;48.770;9.154;2023-03-01T05:07:58;34.57;;;14.67;;
2023;SDS011;1016;48.770;9.154;2023-03-01T05:10:25;35.97;;;14.70;;
2023;SDS011;1016;48.770;9.154;2023-03-01T05:12:56;34.93;;;15.63;;
2023;SDS011;1016;48.770;9.154;2023-03-01T05:15:23;33.00;;;14.80;;
2023;SDS011;1016;48.770;9.154;2023-03-01T05:17:53;32.30;;;14.10;;
2023;SDS011;1016;48.770;9.154;2023-03-01T05:20:25;33.57;;;15.00;;
2023;SDS011;1016;48.770;9.154;2023-03-01T05:22:56;35.10;;;15.03;;
2023;SDS011;1016;48.770;9.154;2023-03-01T05:25:26;35.60;;;15.20;;
2023;SDS011;1016;48.770;9.154;2023-03-01T05:27:53;32.80;;;14.40;;
2023;SDS011;1016;48.770;9.154;2023-03-01T05:30:20;35.63;;;15.87;;
2023;SDS011;1016;48.770;9.154;2023-03-01T05:32:47;36.00;;;15.17;;
2023;SDS011;1016;48.770;9.154;2023-03-01T05:35:23;32.00;;;14.63;;
2023;SDS011;1016;48.770;9.154;2023-03-01T05:37:52;33.50;;;14.40;;
2023;SDS011;1016;48.770;9.154;2023-03-01T05:40:21;36.70;;;15.00;;
2023;SDS011;1016;48.770;9.154;2023-03-01T05:42:49;34.20;;;15.40;;
2023;SDS011;1016;48.770;9.154;2023-03-01T05:45:20;31.27;;;13.70;;
2023;SDS011;1016;48.770;9.154;2023-03-01T05:47:48;34.60;;;15.73;;
2023;SDS011;1016;48.770;9.154;2023-03-01T05:50:17;33.53;;;15.20;;
2023;SDS011;1016;48.770;9.154;2023-03-01T05:52:48;32.77;;;14.80;;
2023;SDS011;1016;48.770;9.154;2023-03-01T05:55:19;35.87;;;15.67;;
2023;SDS011;1016;48.770;9.154;2023-03-01T05:57:46;33.63;;;14.43;;
2023;SDS011;1016;48.770;9.154;2023-03-01T06:00:16;41.37;;;15.93;;
2023;SDS011;1016;48.770;9.154;2023-03-01T06:02:43;33.00;;;15.03;;
2023;SDS011;1016;48.770;9.154;2023-03-01T06:05:10;33.60;;;15.30;;
2023;SDS011;1016;48.770;9.154;2023-03-01T06:07:38;33.33;;;15.33;;
2023;SDS011;1016;48.770;9.154;2023-03-01T06:10:05;35.57;;;15.33;;
2023;SDS011;1016;48.770;9.154;2023-03-01T06:12:31;33.40;;;15.57;;
2023;SDS011;1016;48.770;9.154;2023-03-01T06:14:58;34.07;;;15.67;;
2023;SDS011;1016;48.770;9.154;2023-03-01T06:17:24;33.20;;;15.27;;
2023;SDS011;1016;48.770;9.154;2023-03-01T06:19:49;38.50;;;15.03;;
2023;SDS011;1016;48.770;9.154;2023-03-01T06:22:15;34.27;;;15.20;;
2023;SDS011;1016;48.770;9.154;2023-03-01T06:24:40;39.90;;;16.33;;
2023;SDS011;1016;48.770;9.154;2023-03-01T06:27:06;34.43;;;15.03;;
2023;SDS011;1016;48.770;9.154;2023-03-01T06:29:31;34.73;;;15.67;;
2023;SDS011;1016;48.770;9.154;2023-03-01T06:31:57;36.37;;;14.53;;
2023;SDS011;1016;48.770;9.154;2023-03-01T06:34:22;32.43;;;15.47;;
2023;SDS011;1016;48.770;9.154;2023-03-01T06:36:48;36.30;;;15.20;;
2023;SDS011;1016;48.770;9.154;2023-03-01T06:39:13;32.83;;;15.07;;
2023;SDS011;1016;48.770;9.154;2023-03-01T06:41:39;33.77;;;15.30;;
2023;SDS011;1016;48.770;9.154;2023-03-01T06:44:05;33.53;;;14.50;;
2023;SDS011;1016;48.770;9.154;2023-03-01T06:46:30;34.53;;;15.83;;
2023;SDS011;1016;48.770;9.154;2023-03-01T06:48:56;34.70;;;16.10;;
2023;SDS011;1016;48.770;9.154;2023-03-01T06:51:21;35.20;;;16.53;;
2023;SDS011;1016;48.770;9.154;2023-03-01T06:53:47;36.93;;;15.87;;
2023;SDS011;1016;48.770;9.154;2023-03-01T06:56:12;34.80;;;15.90;;
2023;SDS011;1016;48.770;9.154;2023-03-01T06:58:38;36.40;;;15.00;;
2023;SDS011;1016;48.770;9.154;2023-03-01T07:01:07;37.40;;;15.97;;
2023;SDS011;1016;48.770;9.154;2023-03-01T07:03:32;35.27;;;15.10;;
2023;SDS011;1016;48.770;9.154;2023-03-01T07:05:58;34.17;;;15.70;;
2023;SDS011;1016;48.770;9.154;2023-03-01T07:08:24;34.20;;;15.73;;
2023;SDS011;1016;48.770;9.154;2023-03-01T07:10:54;36.90;;;15.60;;
2023;SDS011;1016;48.770;9.154;2023-03-01T07:13:22;37.07;;;16.53;;
2023;SDS011;1016;48.770;9.154;2023-03-01T07:15:48;33.40;;;15.67;;
2023;SDS011;1016;48.770;9.154;2023-03-01T07:18:13;35.00;;;14.60;;
2023;SDS011;1016;48.770;9.154;2023-03-01T07:20:39;34.10;;;15.87;;
2023;SDS011;1016;48.770;9.154;2023-03-01T07:23:04;35.13;;;16.33;;
2023;SDS011;1016;48.770;9.154;2023-03-01T07:25:32;34.77;;;16.37;;
2023;SDS011;1016;48.770;9.154;2023-03-01T07:27:57;37.60;;;16.73;;
2023;SDS011;1016;48.770;9.154;2023-03-01T07:30:25;33.07;;;15.30;;
2023;SDS011;1016;48.770;9.154;2023-03-01T07:32:55;41.13;;;15.60;;
2023;SDS011;1016;48.770;9.154;2023-03-01T07:35:31;34.60;;;15.67;;
2023;SDS011;1016;48.770;9.154;2023-03-01T07:38:03;36.07;;;15.97;;
2023;SDS011;1016;48.770;9.154;2023-03-01T07:40:32;37.30;;;17.30;;
2023;SDS011;1016;48.770;9.154;2023-03-01T07:43:03;35.20;;;15.50;;
2023;SDS011;1016;48.770;9.154;2023-03-01T07:45:29;35.90;;;15.33;;
2023;SDS011;1016;48.770;9.154;2023-03-01T07:48:05;33.70;;;16.47;;
2023;SDS011;1016;48.770;9.154;2023-03-01T07:50:31;34.37;;;16.17;;
2023;SDS011;1016;48.770;9.154;2023-03-01T07:53:03;36.80;;;16.67;;
2023;SDS011;1016;48.770;9.154;2023-03-01T07:55:41;35.13;;;16.47;;
2023;SDS011;1016;48.770;9.154;2023-03-01T07:58:13;34.83;;;16.40;;
2023;SDS011;1016;48.770;9.154;2023-03-01T08:01:01;34.60;;;16.07;;
2023;SDS011;1016;48.770;9.154;2023-03-01T08:03:42;34.90;;;16.10;;
2023;SDS011;1016;48.770;9.154;2023-03-01T08:06:10;33.47;;;16.17;;
2023;SDS011;1016;48.770;9.154;2023-03-01T08:08:41;36.40;;;16.67;;
2023;SDS011;1016;48.770;9.154;2023-03-01T08:11:28;37.83;;;16.77;;
2023;SDS011;1016;48.770;9.154;2023-03-01T08:14:03;34.23;;;15.87;;
2023;SDS011;1016;48.770;9.154;2023-03-01T08:16:37;36.63;;;16.93;;
2023;SDS011;1016;48.770;9.154;2023-03-01T08:19:04;35.67;;;17.13;;
2023;SDS011;1016;48.770;9.154;2023-03-01T08:21:38;34.10;;;16.23;;
2023;SDS011;1016;48.770;9.154;2023-03-01T08:24:31;35.90;;;16.60;;
2023;SDS011;1016;48.770;9.154;2023-03-01T08:26:56;36.67;;;15.83;;
2023;SDS011;1016;48.770;9.154;2023-03-01T08:29:23;34.37;;;16.57;;
2023;SDS011;1016;48.770;9.154;2023-03-01T08:31:56;35.90;;;17.80;;
2023;SDS011;1016;48.770;9.154;2023-03-01T08:34:21;35.40;;;16.00;;
2023;SDS011;1016;48.770;9.154;2023-03-01T08:36:47;39.77;;;17.47;;
2023;SDS011;1016;48.770;9.154;2023-03-01T08:39:16;40.80;;;17.27;;
2023;SDS011;1016;48.770;9.154;2023-03-01T08:41:44;35.20;;;16.07;;
2023;SDS011;1016;48.770;9.154;2023-03-01T08:44:10;37.53;;;18.10;;
2023;SDS011;1016;48.770;9.154;2023-03-01T08:47:00;35.47;;;17.37;;
2023;SDS011;1016;48.770;9.154;2023-03-01T08:49:27;41.60;;;16.80;;
2023;SDS011;1016;48.770;9.154;2023-03-01T08:51:52;38.63;;;17.83;;
2023;SDS011;1016;48.770;9.154;2023-03-01T08:54:19;36.30;;;16.80;;
2023;SDS011;1016;48.770;9.154;2023-03-01T08:56:46;36.20;;;17.50;;
2023;SDS011;1016;48.770;9.154;2023-03-01T08:59:12;37.33;;;17.87;;
2023;SDS011;1016;48.770;9.154;2023-03-01T09:01:39;34.73;;;17.20;;
2023;SDS011;1016;48.770;9.154;2023-03-01T09:04:08;37.25;;;20.27;;
2023;SDS011;1016;48.770;9.154;2023-03-01T09:06:34;35.90;;;17.50;;
2023;SDS011;1016;48.770;9.154;2023-03-01T09:08:59;34.37;;;16.57;;
2023;SDS011;1016;48.770;9.154;2023-03-01T09:11:25;39.63;;;17.80;;
2023;SDS011;1016;48.770;9.154;2023-03-01T09:13:52;38.60;;;17.93;;
2023;SDS011;1016;48.770;9.154;2023-03-01T09:16:18;37.90;;;18.53;;
2023;SDS011;1016;48.770;9.154;2023-03-01T09:18:48;36.00;;;17.57;;
2023;SDS011;1016;48.770;9.154;2023-03-01T09:21:18;35.90;;;17.93;;
2023;SDS011;1016;48.770;9.154;2023-03-01T09:23:46;37.10;;;18.30;;
2023;SDS011;1016;48.770;9.154;2023-03-01T09:26:17;34.93;;;17.40;;
2023;SDS011;1016;48.770;9.154;2023-03-01T09:28:47;36.83;;;17.50;;
2023;SDS011;1016;48.770;9.154;2023-03-01T09:31:14;36.50;;;17.73;;
2023;SDS011;1016;48.770;9.154;2023-03-01T09:33:41;37.93;;;18.33;;
2023;SDS011;1016;48.770;9.154;2023-03-01T09:36:09;37.27;;;17.77;;
2023;SDS011;1016;48.770;9.154;2023-03-01T09:38:40;35.77;;;17.30;;
2023;SDS011;1016;48.770;9.154;2023-03-01T09:41:17;36.10;;;17.40;;
2023;SDS011;1016;48.770;9.154;2023-03-01T09:43:55;38.83;;;18.57;;
2023;SDS011;1016;48.770;9.154;2023-03-01T09:46:25;37.10;;;18.03;;
2023;SDS011;1016;48.770;9.154;2023-03-01T09:48:55;36.73;;;18.30;;
2023;SDS011;1016;48.770;9.154;2023-03-01T09:51:32;37.60;;;17.63;;
2023;SDS011;1016;48.770;9.154;2023-03-01T09:54:01;35.73;;;17.20;;
2023;SDS011;1016;48.770;9.154;2023-03-01T09:56:29;36.97;;;17.57;;
2023;SDS011;1016;48.770;9.154;2023-03-01T10:04:49;34.17;;;16.63;;
2023;SDS011;1016;48.770;9.154;2023-03-01T10:10:07;40.90;;;17.50;;
2023;SDS011;1016;48.770;9.154;2023-03-01T10:12:41;37.53;;;17.73;;
2023;SDS011;1016;48.770;9.154;2023-03-01T10:15:17;39.80;;;16.57;;
2023;SDS011;1016;48.770;9.154;2023-03-01T10:20:22;35.47;;;16.03;;
2023;SDS011;1016;48.770;9.154;2023-03-01T10:22:49;35.53;;;16.83;;
2023;SDS011;1016;48.770;9.154;2023-03-01T10:25:25;36.97;;;16.40;;
2023;SDS011;1016;48.770;9.154;2023-03-01T10:28:17;35.83;;;16.33;;
2023;SDS011;1016;48.770;9.154;2023-03-01T10:30:49;34.37;;;15.70;;
2023;SDS011;1016;48.770;9.154;2023-03-01T10:33:27;37.07;;;18.20;;
2023;SDS011;1016;48.770;9.154;2023-03-01T10:35:57;37.10;;;19.00;;
2023;SDS011;1016;48.770;9.154;2023-03-01T10:38:22;36.77;;;18.23;;
2023;SDS011;1016;48.770;9.154;2023-03-01T10:43:25;33.07;;;16.43;;
2023;SDS011;1016;48.770;9.154;2023-03-01T10:45:53;37.10;;;18.07;;
2023;SDS011;1016;48.770;9.154;2023-03-01T10:56:06;35.30;;;18.10;;
2023;SDS011;1016;48.770;9.154;2023-03-01T10:58:41;34.37;;;16.23;;
2023;SDS011;1016;48.770;9.154;2023-03-01T11:01:26;36.80;;;17.87;;
2023;SDS011;1016;48.770;9.154;2023-03-01T11:06:32;38.40;;;17.43;;
2023;SDS011;1016;48.770;9.154;2023-03-01T11:09:12;34.80;;;17.70;;
2023;SDS011;1016;48.770;9.154;2023-03-01T11:11:52;38.30;;;18.63;;
2023;SDS011;1016;48.770;9.154;2023-03-01T11:16:58;35.53;;;16.87;;
2023;SDS011;1016;48.770;9.154;2023-03-01T11:19:31;34.33;;;16.80;;
2023;SDS011;1016;48.770;9.154;2023-03-01T11:24:42;32.87;;;16.90;;
2023;SDS011;1016;48.770;9.154;2023-03-01T11:27:16;34.43;;;17.70;;
2023;SDS011;1016;48.770;9.154;2023-03-01T11:29:55;35.90;;;17.10;;
2023;SDS011;1016;48.770;9.154;2023-03-01T11:32:39;36.23;;;16.70;;
2023;SDS011;1016;48.770;9.154;2023-03-01T11:35:10;35.63;;;16.43;;
2023;SDS011;1016;48.770;9.154;2023-03-01T11:40:46;37.10;;;17.00;;
2023;SDS011;1016;48.770;9.154;2023-03-01T11:43:44;38.27;;;17.27;;
2023;SDS011;1016;48.770;9.154;2023-03-01T11:51:47;34.80;;;16.70;;
2023;SDS011;1016;48.770;9.154;2023-03-01T12:03:33;39.25;;;19.75;;
2023;SDS011;1016;48.770;9.154;2023-03-01T12:17:46;40.90;;;16.80;;
2023;SDS011;1016;48.770;9.154;2023-03-01T12:28:39;33.07;;;16.40;;
2023;SDS011;1016;48.770;9.154;2023-03-01T12:34:05;32.87;;;15.50;;
2023;SDS011;1016;48.770;9.154;2023-03-01T12:39:24;34.20;;;16.20;;
2023;SDS011;1016;48.770;9.154;2023-03-01T12:50:03;32.90;;;15.43;;
2023;SDS011;1016;48.770;9.154;2023-03-01T12:52:41;36.03;;;16.03;;
2023;SDS011;1016;48.770;9.154;2023-03-01T12:55:44;34.73;;;16.83;;
2023;SDS011;1016;48.770;9.154;2023-03-01T12:58:21;32.60;;;14.20;;
2023;SDS011;1016;48.770;9.154;2023-03-01T13:11:43;30.93;;;14.13;;
2023;SDS011;1016;48.770;9.154;2023-03-01T13:16:52;32.83;;;14.30;;
2023;SDS011;1016;48.770;9.154;2023-03-01T13:19:20;31.70;;;14.70;;
2023;SDS011;1016;48.770;9.154;2023-03-01T13:21:51;31.53;;;13.77;;
2023;SDS011;1016;48.770;9.154;2023-03-01T13:24:25;33.10;;;14.27;;
2023;SDS011;1016;48.770;9.154;2023-03-01T13:29:46;30.30;;;13.60;;
2023;SDS011;1016;48.770;9.154;2023-03-01T13:37:42;32.27;;;14.97;;
2023;SDS011;1016;48.770;9.154;2023-03-01T13:42:44;32.53;;;14.83;;
2023;SDS011;1016;48.770;9.154;2023-03-01T13:45:21;31.63;;;15.07;;
2023;SDS011;1016;48.770;9.154;2023-03-01T13:47:55;34.90;;;16.27;;
2023;SDS011;1016;48.770;9.154;2023-03-01T13:50:28;32.53;;;15.30;;
2023;SDS011;1016;48.770;9.154;2023-03-01T13:52:59;34.13;;;15.10;;
2023;SDS011;1016;48.770;9.154;2023-03-01T13:55:44;32.17;;;14.43;;
2023;SDS011;1016;48.770;9.154;2023-03-01T13:58:47;32.00;;;15.60;;
2023;SDS011;1016;48.770;9.154;2023-03-01T14:01:30;38.20;;;17.33;;
2023;SDS011;1016;48.770;9.154;2023-03-01T14:03:57;34.70;;;16.73;;
2023;SDS011;1016;48.770;9.154;2023-03-01T14:06:24;42.30;;;17.57;;
2023;SDS011;1016;48.770;9.154;2023-03-01T14:09:02;35.10;;;17.17;;
2023;SDS011;1016;48.770;9.154;2023-03-01T14:14:36;34.93;;;16.63;;
2023;SDS011;1016;48.770;9.154;2023-03-01T14:19:46;34.90;;;17.57;;
2023;SDS011;1016;48.770;9.154;2023-03-01T14:22:17;36.60;;;17.63;;
2023;SDS011;1016;48.770;9.154;2023-03-01T14:24:51;35.90;;;18.03;;
2023;SDS011;1016;48.770;9.154;2023-03-01T14:27:20;34.00;;;18.17;;
2023;SDS011;1016;48.770;9.154;2023-03-01T14:29:59;35.53;;;18.00;;
2023;SDS011;1016;48.770;9.154;2023-03-01T14:32:27;36.08;;;19.35;;
2023;SDS011;1016;48.770;9.154;2023-03-01T14:34:54;33.53;;;17.40;;
2023;SDS011;1016;48.770;9.154;2023-03-01T14:37:25;37.23;;;19.27;;
2023;SDS011;1016;48.770;9.154;2023-03-01T14:39:51;38.20;;;18.90;;
2023;SDS011;1016;48.770;9.154;2023-03-01T14:42:18;42.13;;;18.60;;
2023;SDS011;1016;48.770;9.154;2023-03-01T14:44:46;37.33;;;18.60;;
2023;SDS011;1016;48.770;9.154;2023-03-01T14:47:15;34.53;;;17.07;;
2023;SDS011;1016;48.770;9.154;2023-03-01T14:49:57;37.37;;;18.70;;
2023;SDS011;1016;48.770;9.154;2023-03-01T14:52:30;34.67;;;17.20;;
2023;SDS011;1016;48.770;9.154;2023-03-01T14:54:59;34.30;;;17.43;;
2023;SDS011;1016;48.770;9.154;2023-03-01T14:57:26;34.80;;;17.27;;
2023;SDS011;1016;48.770;9.154;2023-03-01T14:59:52;35.07;;;18.00;;
2023;SDS011;1016;48.770;9.154;2023-03-01T15:02:31;35.53;;;17.60;;
2023;SDS011;1016;48.770;9.154;2023-03-01T15:04:58;35.00;;;17.67;;
2023;SDS011;1016;48.770;9.154;2023-03-01T15:07:30;37.50;;;18.77;;
2023;SDS011;1016;48.770;9.154;2023-03-01T15:09:59;40.70;;;18.20;;
2023;SDS011;1016;48.770;9.154;2023-03-01T15:14:54;34.60;;;17.30;;
2023;SDS011;1016;48.770;9.154;2023-03-01T15:17:29;36.77;;;17.90;;
2023;SDS011;1016;48.770;9.154;2023-03-01T15:19:58;34.80;;;17.53;;
2023;SDS011;1016;48.770;9.154;2023-03-01T15:22:25;35.10;;;18.37;;
2023;SDS011;1016;48.770;9.154;2023-03-01T15:24:51;38.33;;;18.73;;
2023;SDS011;1016;48.770;9.154;2023-03-01T15:27:19;34.53;;;18.13;;
2023;SDS011;1016;48.770;9.154;2023-03-01T15:30:05;35.40;;;17.60;;
2023;SDS011;1016;48.770;9.154;2023-03-01T15:32:35;36.70;;;18.83;;
2023;SDS011;1016;48.770;9.154;2023-03-01T15:37:59;35.63;;;17.97;;
2023;SDS011;1016;48.770;9.154;2023-03-01T15:40:29;36.10;;;17.57;;
2023;SDS011;1016;48.770;9.154;2023-03-01T15:43:01;37.63;;;18.70;;
2023;SDS011;1016;48.770;9.154;2023-03-01T15:45:30;34.80;;;18.40;;
2023;SDS011;1016;48.770;9.154;2023-03-01T15:48:00;35.80;;;17.73;;
2023;SDS011;1016;48.770;9.154;2023-03-01T15:50:31;38.33;;;19.77;;
2023;SDS011;1016;48.770;9.154;2023-03-01T15:52:59;36.10;;;17.90;;
2023;SDS011;1016;48.770;9.154;2023-03-01T15:55:28;35.70;;;17.43;;
2023;SDS011;1016;48.770;9.154;2023-03-01T15:58:02;35.63;;;17.27;;
2023;SDS011;1016;48.770;9.154;2023-03-01T16:00:31;36.10;;;17.10;;
2023;SDS011;1016;48.770;9.154;2023-03-01T16:02:57;35.73;;;17.20;;
2023;SDS011;1016;48.770;9.154;2023-03-01T16:05:28;36.33;;;17.40;;
2023;SDS011;1016;48.770;9.154;2023-03-01T16:07:55;35.83;;;17.30;;
2023;SDS011;1016;48.770;9.154;2023-03-01T16:10:21;35.20;;;16.97;;
2023;SDS011;1016;48.770;9.154;2023-03-01T16:12:50;36.17;;;18.87;;
2023;SDS011;1016;48.770;9.154;2023-03-01T16:15:21;38.83;;;17.40;;
2023;SDS011;1016;48.770;9.154;2023-03-01T16:17:48;34.20;;;17.00;;
2023;SDS011;1016;48.770;9.154;2023-03-01T16:20:14;36.13;;;18.20;;
2023;SDS011;1016;48.770;9.154;2023-03-01T16:22:41;34.70;;;16.17;;
2023;SDS011;1016;48.770;9.154;2023-03-01T16:25:11;35.77;;;17.53;;
2023;SDS011;1016;48.770;9.154;2023-03-01T16:27:38;37.50;;;17.23;;
2023;SDS011;1016;48.770;9.154;2023-03-01T16:30:04;34.03;;;16.97;;
2023;SDS011;1016;48.770;9.154;2023-03-01T16:32:31;36.13;;;17.87;;
2023;SDS011;1016;48.770;9.154;2023-03-01T16:34:56;35.80;;;17.53;;
2023;SDS011;1016;48.770;9.154;2023-03-01T16:37:22;36.07;;;17.50;;
2023;SDS011;1016;48.770;9.154;2023-03-01T16:39:47;37.90;;;17.13;;
2023;SDS011;1016;48.770;9.154;2023-03-01T16:42:15;35.40;;;17.07;;
2023;SDS011;1016;48.770;9.154;2023-03-01T16:44:42;34.87;;;16.00;;
2023;SDS011;1016;48.770;9.154;2023-03-01T16:47:07;33.73;;;17.30;;
2023;SDS011;1016;48.770;9.154;2023-03-01T16:49:33;32.50;;;15.23;;
2023;SDS011;1016;48.770;9.154;2023-03-01T16:51:58;36.17;;;16.30;;
2023;SDS011;1016;48.770;9.154;2023-03-01T16:54:24;35.17;;;17.13;;
2023;SDS011;1016;48.770;9.154;2023-03-01T16:56:49;35.13;;;17.00;;
2023;SDS011;1016;48.770;9.154;2023-03-01T16:59:15;35.43;;;16.43;;
2023;SDS011;1016;48.770;9.154;2023-03-01T17:01:43;37.50;;;16.50;;
2023;SDS011;1016;48.770;9.154;2023-03-01T17:04:10;35.07;;;16.93;;
2023;SDS011;1016;48.770;9.154;2023-03-01T17:06:36;34.13;;;17.20;;
2023;SDS011;1016;48.770;9.154;2023-03-01T17:09:02;35.20;;;16.93;;
2023;SDS011;1016;48.770;9.154;2023-03-01T17:11:28;39.40;;;16.80;;
2023;SDS011;1016;48.770;9.154;2023-03-01T17:13:53;35.23;;;16.20;;
2023;SDS011;1016;48.770;9.154;2023-03-01T17:16:19;37.40;;;17.77;;